createdAt,value
2023-05-14T00:02:02.450Z,70.57
2023-05-14T00:05:10.441Z,70.34
2023-05-14T00:11:36.581Z,74.28
2023-05-14T00:14:40.710Z,72.68
2023-05-14T00:17:44.471Z,73.07
2023-05-14T00:20:48.396Z,71.83
2023-05-14T00:23:52.903Z,71.17
2023-05-14T00:26:57.117Z,72.79
2023-05-14T00:30:07.167Z,71.44
2023-05-14T00:33:13.407Z,72.32
2023-05-14T00:36:39.878Z,73.33
2023-05-14T00:39:42.172Z,72.31
2023-05-14T00:42:47.313Z,72.03
2023-05-14T00:45:51.460Z,72.20
2023-05-14T00:48:55.403Z,73.26
2023-05-14T00:51:59.612Z,71.90
2023-05-14T00:55:03.888Z,72.90
2023-05-14T00:58:12.346Z,72.38
2023-05-14T01:01:26.925Z,72.61
2023-05-14T01:04:33.618Z,72.90
2023-05-14T01:07:39.174Z,73.53
2023-05-14T01:10:44.753Z,72.88
2023-05-14T01:13:53.720Z,74.01
2023-05-14T01:16:58.274Z,73.75
2023-05-14T01:20:06.473Z,74.33
2023-05-14T01:23:10.783Z,75.06
2023-05-14T01:26:16.464Z,75.05
2023-05-14T01:29:26.222Z,74.24
2023-05-14T01:32:30.273Z,74.86
2023-05-14T01:35:37.076Z,76.97
2023-05-14T01:38:42.249Z,75.24
2023-05-14T01:41:46.348Z,74.42
2023-05-14T01:44:50.272Z,73.18
2023-05-14T01:47:54.989Z,74.22
2023-05-14T01:51:02.373Z,74.71
2023-05-14T01:54:13.157Z,73.12
2023-05-14T01:57:21.884Z,73.19
2023-05-14T02:00:29.055Z,73.48
2023-05-14T02:03:34.797Z,74.34
2023-05-14T02:06:38.656Z,73.93
2023-05-14T02:09:49.238Z,75.09
2023-05-14T02:13:16.251Z,76.03
2023-05-14T02:16:18.703Z,76.88
2023-05-14T02:19:26.430Z,73.90
2023-05-14T02:22:30.763Z,73.33
2023-05-14T02:25:41.266Z,74.82
2023-05-14T02:28:45.626Z,74.28
2023-05-14T02:32:37.085Z,74.02
2023-05-14T02:35:17.106Z,73.49
2023-05-14T02:38:26.278Z,72.34
2023-05-14T02:41:31.785Z,70.92
2023-05-14T02:44:39.647Z,66.94
2023-05-14T02:47:46.280Z,68.30
2023-05-14T02:54:16.082Z,68.94
2023-05-14T02:57:41.116Z,70.32
2023-05-14T03:01:02.321Z,70.15
2023-05-14T03:04:08.294Z,68.60
2023-05-14T03:07:14.891Z,68.20
2023-05-14T03:10:41.709Z,69.94
2023-05-14T03:13:54.439Z,69.88
2023-05-14T03:16:58.640Z,69.34
2023-05-14T03:20:07.123Z,70.33
2023-05-14T03:23:15.642Z,70.35
2023-05-14T03:27:07.020Z,71.81
2023-05-14T03:29:44.559Z,73.46
2023-05-14T03:32:49.944Z,72.03
2023-05-14T03:39:17.132Z,71.26
2023-05-14T03:42:27.428Z,71.43
2023-05-14T03:45:31.163Z,71.28
2023-05-14T03:48:39.472Z,71.94
2023-05-14T03:51:43.821Z,71.54
2023-05-14T03:54:48.085Z,71.98
2023-05-14T03:57:52.273Z,73.19
2023-05-14T04:00:56.334Z,72.05
2023-05-14T04:04:00.069Z,70.23
2023-05-14T04:07:03.754Z,70.20
2023-05-14T04:10:07.672Z,71.06
2023-05-14T04:13:11.453Z,67.58
2023-05-14T04:16:15.465Z,68.88
2023-05-14T04:19:19.426Z,68.94
2023-05-14T04:22:23.622Z,70.14
2023-05-14T04:25:30.546Z,69.98
2023-05-14T04:28:34.735Z,70.91
2023-05-14T04:31:39.842Z,70.38
2023-05-14T04:34:43.886Z,71.40
2023-05-14T04:37:47.658Z,70.69
2023-05-14T04:40:52.092Z,69.46
2023-05-14T04:43:56.064Z,69.25
2023-05-14T04:47:00.283Z,69.01
2023-05-14T04:50:03.862Z,69.45
2023-05-14T04:53:08.097Z,68.81
2023-05-14T04:56:12.213Z,67.17
2023-05-14T04:59:15.928Z,67.35
2023-05-14T05:02:20.935Z,67.04
2023-05-14T05:05:25.124Z,68.43
2023-05-14T05:08:29.151Z,67.55
2023-05-14T05:11:33.351Z,66.85
2023-05-14T05:14:37.050Z,68.67
2023-05-14T05:17:41.101Z,67.85
2023-05-14T05:20:45.005Z,66.44
2023-05-14T05:23:49.082Z,68.21
2023-05-14T05:26:53.258Z,67.78
2023-05-14T05:29:57.076Z,68.89
2023-05-14T05:33:01.121Z,68.11
2023-05-14T05:36:05.259Z,69.22
2023-05-14T05:39:09.317Z,68.91
2023-05-14T05:42:13.077Z,66.24
2023-05-14T05:45:16.822Z,66.68
2023-05-14T05:48:20.896Z,67.06
2023-05-14T05:51:24.794Z,68.53
2023-05-14T05:54:28.848Z,69.51
2023-05-14T05:57:32.681Z,68.21
2023-05-14T06:00:36.702Z,71.08
2023-05-14T06:03:40.580Z,68.76
2023-05-14T06:06:44.432Z,68.26
2023-05-14T06:09:48.684Z,65.17
2023-05-14T06:12:52.647Z,65.53
2023-05-14T06:15:56.491Z,64.71
2023-05-14T06:19:00.454Z,65.72
2023-05-14T06:22:04.746Z,65.49
2023-05-14T06:25:11.064Z,64.83
2023-05-14T06:28:22.363Z,64.34
2023-05-14T06:31:26.512Z,64.22
2023-05-14T06:34:36.404Z,62.79
2023-05-14T06:37:40.268Z,61.36
2023-05-14T06:40:44.379Z,62.60
2023-05-14T06:43:48.600Z,62.55
2023-05-14T06:46:53.013Z,61.52
2023-05-14T06:49:56.908Z,62.58
2023-05-14T06:53:00.884Z,66.41
2023-05-14T06:56:04.713Z,63.45
2023-05-14T06:59:08.900Z,63.89
2023-05-14T07:02:13.191Z,62.05
2023-05-14T07:05:19.623Z,61.17
2023-05-14T07:08:23.771Z,62.15
2023-05-14T07:11:27.681Z,61.11
2023-05-14T07:14:31.921Z,60.73
2023-05-14T07:17:36.074Z,63.23
2023-05-14T07:20:40.155Z,59.46
2023-05-14T07:23:44.183Z,58.78
2023-05-14T07:26:52.502Z,59.20
2023-05-14T07:30:00.803Z,57.56
2023-05-14T07:33:07.363Z,57.36
2023-05-14T07:36:11.223Z,59.09
2023-05-14T07:39:18.537Z,58.93
2023-05-14T07:42:35.214Z,57.50
2023-05-14T07:45:40.996Z,55.88
2023-05-14T07:48:47.592Z,55.96
2023-05-14T07:51:52.885Z,62.51
2023-05-14T07:54:56.603Z,61.40
2023-05-14T07:58:01.712Z,62.11
2023-05-14T08:01:05.857Z,61.53
2023-05-14T08:04:10.929Z,58.71
2023-05-14T08:07:17.788Z,58.09
2023-05-14T08:13:44.018Z,56.08
2023-05-14T08:16:47.964Z,56.28
2023-05-14T08:19:52.145Z,56.49
2023-05-14T08:22:57.453Z,57.63
2023-05-14T08:26:02.846Z,54.34
2023-05-14T08:29:07.474Z,54.77
2023-05-14T08:32:22.911Z,53.76
2023-05-14T08:35:28.441Z,55.26
2023-05-14T08:38:36.663Z,55.22
2023-05-14T08:41:41.052Z,58.77
2023-05-14T08:44:46.320Z,60.46
2023-05-14T08:47:50.897Z,62.17
2023-05-14T08:50:55.110Z,61.91
2023-05-14T08:54:03.019Z,59.15
2023-05-14T09:00:25.077Z,54.52
2023-05-14T09:03:30.574Z,53.05
2023-05-14T09:06:36.538Z,51.89
2023-05-14T09:09:40.676Z,50.97
2023-05-14T09:12:44.294Z,52.06
2023-05-14T09:15:48.409Z,51.04
2023-05-14T09:18:52.225Z,50.33
2023-05-14T09:22:00.050Z,51.27
2023-05-14T09:25:03.990Z,51.21
2023-05-14T09:28:18.501Z,53.83
2023-05-14T09:31:22.752Z,56.90
2023-05-14T09:34:26.647Z,55.51
2023-05-14T09:37:30.664Z,55.44
2023-05-14T09:40:34.664Z,53.86
2023-05-14T09:43:39.797Z,53.00
2023-05-14T09:46:47.049Z,55.64
2023-05-14T09:49:54.107Z,56.75
2023-05-14T09:53:02.844Z,57.87
2023-05-14T09:56:39.996Z,57.63
2023-05-14T09:59:32.047Z,60.14
2023-05-14T10:02:36.082Z,59.46
2023-05-14T10:05:43.662Z,58.00
2023-05-14T10:08:47.824Z,58.36
2023-05-14T10:11:54.311Z,59.38
2023-05-14T10:14:58.350Z,58.91
2023-05-14T10:18:02.730Z,57.22
2023-05-14T10:21:06.709Z,57.88
2023-05-14T10:24:18.040Z,57.15
2023-05-14T10:27:22.139Z,56.10
2023-05-14T10:30:26.250Z,56.58
2023-05-14T10:33:30.252Z,55.78
2023-05-14T10:36:34.142Z,55.37
2023-05-14T10:39:38.102Z,51.83
2023-05-14T10:42:42.120Z,53.29
2023-05-14T10:45:49.909Z,53.85
2023-05-14T10:48:53.867Z,52.54
2023-05-14T10:51:57.706Z,53.76
2023-05-14T10:55:03.461Z,51.23
2023-05-14T10:58:07.749Z,53.13
2023-05-14T11:01:11.740Z,57.33
2023-05-14T11:04:15.634Z,57.19
2023-05-14T11:07:19.605Z,55.31
2023-05-14T11:10:28.467Z,55.32
2023-05-14T11:13:32.924Z,50.85
2023-05-14T11:16:37.051Z,51.75
2023-05-14T11:19:40.937Z,51.14
2023-05-14T11:22:44.668Z,49.30
2023-05-14T11:25:48.801Z,50.75
2023-05-14T11:28:52.777Z,50.69
2023-05-14T11:31:56.901Z,52.88
2023-05-14T11:35:00.534Z,50.03
2023-05-14T11:38:06.076Z,49.62
2023-05-14T11:41:10.770Z,46.36
2023-05-14T11:44:14.892Z,49.36
2023-05-14T11:47:18.875Z,50.75
2023-05-14T11:50:23.041Z,49.78
2023-05-14T11:53:27.428Z,49.54
2023-05-14T11:56:31.293Z,53.00
2023-05-14T11:59:35.700Z,53.75
2023-05-14T12:02:43.506Z,53.45
2023-05-14T12:05:47.625Z,52.16
2023-05-14T12:08:51.262Z,50.01
2023-05-14T12:11:55.251Z,48.99
2023-05-14T12:14:59.427Z,48.01
2023-05-14T12:18:03.872Z,47.86
2023-05-14T12:27:37.454Z,48.86
2023-05-14T12:30:43.612Z,43.93
2023-05-14T12:33:47.584Z,43.55
2023-05-14T12:36:51.461Z,43.30
2023-05-14T12:39:55.463Z,43.90
2023-05-14T12:42:59.166Z,44.81
2023-05-14T12:46:03.147Z,43.76
2023-05-14T12:49:09.873Z,46.22
2023-05-14T12:55:26.530Z,45.16
2023-05-14T12:58:40.773Z,45.23
2023-05-14T13:01:46.157Z,44.38
2023-05-14T13:04:53.538Z,43.49
2023-05-14T13:07:57.441Z,48.86
2023-05-14T13:11:04.261Z,49.43
2023-05-14T13:14:08.443Z,49.20
2023-05-14T13:17:12.442Z,49.81
2023-05-14T13:20:16.383Z,46.50
2023-05-14T13:23:20.808Z,48.55
2023-05-14T13:26:25.710Z,47.52
2023-05-14T13:29:30.200Z,45.74
2023-05-14T13:32:35.831Z,48.98
2023-05-14T13:35:40.158Z,47.16
2023-05-14T13:38:47.507Z,48.59
2023-05-14T13:41:53.030Z,49.37
2023-05-14T13:45:01.282Z,47.49
2023-05-14T13:48:05.546Z,44.75
2023-05-14T13:51:10.506Z,43.85
2023-05-14T13:54:14.458Z,45.79
2023-05-14T13:57:19.873Z,46.23
2023-05-14T14:00:24.293Z,44.72
2023-05-14T14:03:29.831Z,44.88
2023-05-14T14:06:35.073Z,44.82
2023-05-14T14:09:38.909Z,43.72
2023-05-14T14:12:42.918Z,43.93
2023-05-14T14:15:48.163Z,42.43
2023-05-14T14:18:53.739Z,44.12
2023-05-14T14:22:04.918Z,48.71
2023-05-14T14:25:44.290Z,45.39
2023-05-14T14:39:44.111Z,45.37
2023-05-14T14:46:17.151Z,44.11
2023-05-14T15:01:48.878Z,46.23
2023-05-14T15:04:55.694Z,46.78
2023-05-14T15:07:59.705Z,47.26
2023-05-14T15:11:03.623Z,44.17
2023-05-14T15:17:37.125Z,43.14
2023-05-14T15:24:15.801Z,47.36
2023-05-14T15:27:23.074Z,43.63
2023-05-14T15:30:30.163Z,45.02
2023-05-14T15:39:42.659Z,42.47
2023-05-14T15:42:47.090Z,42.82
2023-05-14T15:45:50.809Z,44.20
2023-05-14T15:48:54.709Z,43.96
2023-05-14T15:51:58.445Z,45.95
2023-05-14T15:55:02.370Z,46.26
2023-05-14T15:58:07.987Z,47.14
2023-05-14T16:01:12.157Z,47.41
2023-05-14T16:04:16.058Z,52.20
2023-05-14T16:07:22.063Z,57.03
2023-05-14T16:21:48.105Z,62.81
2023-05-14T16:24:52.605Z,65.85
2023-05-14T16:27:56.749Z,63.02
2023-05-14T16:31:02.810Z,62.19
2023-05-14T16:34:07.929Z,62.32
2023-05-14T16:37:13.169Z,59.63
2023-05-14T16:40:17.563Z,60.92
2023-05-14T16:46:50.926Z,53.18
2023-05-14T16:49:55.122Z,53.72
2023-05-14T16:52:59.550Z,51.37
2023-05-14T16:56:03.355Z,51.10
2023-05-14T16:59:07.389Z,53.04
2023-05-14T17:02:11.721Z,50.83
2023-05-14T17:05:15.726Z,52.58
2023-05-14T17:08:20.942Z,51.65
2023-05-14T17:11:27.151Z,58.85
2023-05-14T17:14:31.078Z,55.91
2023-05-14T17:17:36.715Z,53.67
2023-05-14T17:20:42.256Z,50.66
2023-05-14T17:23:46.761Z,50.53
2023-05-14T17:26:50.973Z,52.36
2023-05-14T17:29:54.986Z,51.34
2023-05-14T17:33:02.862Z,49.80
2023-05-14T17:36:08.117Z,48.92
2023-05-14T17:39:12.172Z,51.41
2023-05-14T17:42:17.774Z,53.96
2023-05-14T17:45:26.581Z,51.50
2023-05-14T17:48:31.045Z,51.36
2023-05-14T17:51:36.112Z,54.35
2023-05-14T17:54:40.255Z,51.70
2023-05-14T17:57:44.175Z,52.33
2023-05-14T18:00:48.176Z,52.65
2023-05-14T18:03:52.238Z,52.81
2023-05-14T18:06:56.384Z,52.80
2023-05-14T18:10:00.436Z,52.19
2023-05-14T18:13:05.966Z,51.35
2023-05-14T18:16:10.039Z,50.60
2023-05-14T18:19:14.122Z,50.55
2023-05-14T18:22:18.139Z,50.33
2023-05-14T18:25:22.065Z,50.21
2023-05-14T18:28:26.384Z,50.17
2023-05-14T18:31:30.302Z,50.57
2023-05-14T18:34:38.762Z,49.48
2023-05-14T18:37:42.914Z,51.87
2023-05-14T18:40:48.070Z,50.59
2023-05-14T18:43:52.245Z,51.52
2023-05-14T18:46:58.065Z,53.42
2023-05-14T18:50:15.354Z,53.17
2023-05-14T18:53:19.650Z,53.54
2023-05-14T18:56:26.942Z,54.26
2023-05-14T18:59:41.284Z,55.09
2023-05-14T19:02:45.890Z,56.39
2023-05-14T19:06:13.030Z,57.59
2023-05-14T19:09:18.525Z,57.46
2023-05-14T19:12:23.782Z,58.71
2023-05-14T19:15:28.241Z,62.68
2023-05-14T19:18:36.979Z,65.08
2023-05-14T19:24:24.143Z,72.63
2023-05-14T19:27:28.140Z,72.74
2023-05-14T19:30:33.357Z,78.09
2023-05-14T19:33:37.373Z,79.26
2023-05-14T19:36:41.156Z,78.17
2023-05-14T19:39:45.081Z,75.45
2023-05-14T19:42:48.914Z,75.91
2023-05-14T19:45:53.021Z,75.89
2023-05-14T19:48:59.182Z,79.12
2023-05-14T19:52:02.905Z,74.32
2023-05-14T19:55:15.555Z,71.96
2023-05-14T19:58:19.304Z,76.50
2023-05-14T20:01:23.700Z,74.03
2023-05-14T20:04:31.690Z,75.25
2023-05-14T20:07:36.006Z,73.72
2023-05-14T20:10:40.835Z,73.73
2023-05-14T20:13:44.771Z,73.05
2023-05-14T20:16:49.013Z,72.82
2023-05-14T20:19:57.055Z,70.89
2023-05-14T20:23:01.155Z,73.19
2023-05-14T20:26:07.185Z,73.87
2023-05-14T20:29:11.343Z,73.00
2023-05-14T20:32:15.334Z,72.25
2023-05-14T20:35:20.251Z,73.16
2023-05-14T20:38:24.276Z,71.15
2023-05-14T20:41:28.455Z,72.97
2023-05-14T20:44:32.837Z,71.76
2023-05-14T20:47:36.929Z,73.68
2023-05-14T20:50:40.856Z,72.24
2023-05-14T20:53:44.852Z,71.02
2023-05-14T20:56:48.800Z,72.32
2023-05-14T20:59:53.035Z,71.08
2023-05-14T21:02:57.245Z,72.13
2023-05-14T21:06:01.324Z,72.38
2023-05-14T21:09:05.514Z,68.65
2023-05-14T21:12:09.755Z,69.99
2023-05-14T21:15:13.884Z,70.40
2023-05-14T21:18:17.896Z,71.37
2023-05-14T21:21:22.116Z,69.72
2023-05-14T21:24:26.302Z,69.59
2023-05-14T21:27:30.273Z,70.16
2023-05-14T21:30:34.278Z,69.60
2023-05-14T21:33:38.290Z,69.64
2023-05-14T21:36:42.454Z,71.20
2023-05-14T21:39:46.609Z,69.72
2023-05-14T21:42:50.418Z,69.16
2023-05-14T21:45:54.616Z,69.16
2023-05-14T21:48:58.687Z,68.72
2023-05-14T21:52:02.940Z,68.23
2023-05-14T21:55:07.021Z,68.44
2023-05-14T21:58:10.746Z,67.57
2023-05-14T22:01:14.695Z,66.75
2023-05-14T22:04:18.681Z,66.50
2023-05-14T22:07:22.490Z,67.84
2023-05-14T22:10:26.356Z,69.95
2023-05-14T22:13:29.927Z,69.72
2023-05-14T22:16:33.892Z,69.95
2023-05-14T22:19:37.937Z,70.94
2023-05-14T22:22:41.950Z,70.09
2023-05-14T22:25:46.155Z,69.87
2023-05-14T22:28:49.934Z,70.29
2023-05-14T22:31:54.135Z,70.01
2023-05-14T22:34:59.805Z,71.33
2023-05-14T22:38:05.538Z,71.08
2023-05-14T22:41:09.614Z,70.10
2023-05-14T22:44:13.245Z,69.20
2023-05-14T22:47:17.400Z,71.32
2023-05-14T22:50:21.662Z,71.21
2023-05-14T22:53:25.615Z,71.45
2023-05-14T22:56:29.851Z,72.53
2023-05-14T22:59:34.865Z,72.96
2023-05-14T23:02:38.938Z,73.40
2023-05-14T23:05:44.005Z,72.52
2023-05-14T23:08:48.058Z,72.62
2023-05-14T23:11:51.987Z,71.20
2023-05-14T23:14:55.834Z,71.95
2023-05-14T23:17:59.877Z,70.06
2023-05-14T23:21:03.950Z,72.06
2023-05-14T23:24:07.603Z,68.60
2023-05-14T23:27:11.681Z,67.34
2023-05-14T23:30:15.519Z,70.22
2023-05-14T23:33:19.681Z,68.07
2023-05-14T23:36:23.819Z,69.52
2023-05-14T23:39:27.820Z,68.86
2023-05-14T23:42:31.769Z,70.13
2023-05-14T23:45:35.916Z,69.57
2023-05-14T23:48:41.170Z,71.79
2023-05-14T23:51:45.545Z,72.83
2023-05-14T23:54:49.607Z,70.93
2023-05-14T23:57:53.323Z,73.40
